createdAt,value
2018-09-14T00:03:19.299Z,17.4
2018-09-14T00:08:27.441Z,17.3
2018-09-14T00:13:35.642Z,17.3
2018-09-14T00:18:43.825Z,17.3
2018-09-14T00:23:52.163Z,17.2
2018-09-14T00:29:00.200Z,17.3
2018-09-14T00:34:08.898Z,17.1
2018-09-14T00:39:16.594Z,17.1
2018-09-14T00:44:24.790Z,17.1
2018-09-14T00:49:32.976Z,16.9
2018-09-14T00:54:41.178Z,17
2018-09-14T00:59:49.414Z,16.9
2018-09-14T01:04:57.727Z,16.8
2018-09-14T01:10:05.990Z,16.8
2018-09-14T01:15:14.099Z,16.7
2018-09-14T01:20:22.346Z,16.6
2018-09-14T01:25:30.540Z,16.6
2018-09-14T01:35:48.787Z,16.5
2018-09-14T01:40:58.445Z,16.3
2018-09-14T01:46:03.504Z,16.4
2018-09-14T01:51:11.757Z,16.2
2018-09-14T01:56:20.015Z,16.1
2018-09-14T02:01:28.292Z,16
2018-09-14T02:06:36.602Z,16
2018-09-14T02:11:44.843Z,16
2018-09-14T02:16:53.129Z,15.9
2018-09-14T02:22:01.481Z,15.8
2018-09-14T02:27:09.694Z,15.8
2018-09-14T02:32:17.967Z,15.6
2018-09-14T02:37:26.233Z,15.6
2018-09-14T02:42:34.554Z,15.5
2018-09-14T02:47:42.913Z,15.4
2018-09-14T02:52:51.349Z,15.3
2018-09-14T02:57:59.496Z,15.3
2018-09-14T03:03:07.814Z,15.3
2018-09-14T03:08:16.163Z,15.2
2018-09-14T03:18:32.790Z,15.2
2018-09-14T03:23:41.136Z,15.1
2018-09-14T03:28:49.472Z,15
2018-09-14T03:33:57.844Z,15.1
2018-09-14T03:39:06.286Z,15
2018-09-14T03:49:22.844Z,15.1
2018-09-14T03:54:31.207Z,15.1
2018-09-14T03:59:39.542Z,15.2
2018-09-14T04:04:47.863Z,15.1
2018-09-14T04:09:56.188Z,15.2
2018-09-14T04:15:04.519Z,15.3
2018-09-14T04:20:12.853Z,15.2
2018-09-14T04:25:21.255Z,15.3
2018-09-14T04:30:29.493Z,15.3
2018-09-14T04:35:37.850Z,15.3
2018-09-14T04:40:46.117Z,15.4
2018-09-14T04:45:54.427Z,15.4
2018-09-14T04:51:02.735Z,15.5
2018-09-14T05:01:19.338Z,15.6
2018-09-14T05:06:27.620Z,15.7
2018-09-14T05:11:35.977Z,15.7
2018-09-14T05:16:44.192Z,15.8
2018-09-14T05:21:52.512Z,15.9
2018-09-14T05:27:00.899Z,16
2018-09-14T05:32:09.184Z,16.1
2018-09-14T05:37:17.395Z,16.2
2018-09-14T05:42:25.672Z,16.4
2018-09-14T05:47:34.016Z,16.7
2018-09-14T05:52:42.173Z,17.1
2018-09-14T05:57:50.397Z,17.3
2018-09-14T06:08:06.783Z,18.3
2018-09-14T06:13:14.925Z,18.7
2018-09-14T06:18:23.017Z,19.3
2018-09-14T06:23:31.108Z,19.9
2018-09-14T06:28:39.145Z,20.5
2018-09-14T06:33:47.100Z,21.3
2018-09-14T06:44:02.883Z,22.9
2018-09-14T06:49:10.670Z,23.6
2018-09-14T06:54:18.513Z,24.6
2018-09-14T06:59:26.236Z,25.5
2018-09-14T07:09:41.493Z,27.1
2018-09-14T07:14:49.036Z,27.8
2018-09-14T07:19:56.532Z,28.6
2018-09-14T07:25:03.891Z,29.2
2018-09-14T07:30:11.360Z,30
2018-09-14T07:35:18.804Z,30.6
2018-09-14T07:40:26.133Z,31.4
2018-09-14T07:45:33.335Z,32
2018-09-14T07:50:40.664Z,32.7
2018-09-14T07:55:48.002Z,33.4
2018-09-14T08:00:54.935Z,34.1
2018-09-14T08:11:09.133Z,35.5
2018-09-14T08:16:17.423Z,36.2
2018-09-14T08:26:30.613Z,37.3
2018-09-14T08:31:37.292Z,37.8
2018-09-14T08:36:43.989Z,38.4
2018-09-14T08:41:50.726Z,38.9
2018-09-14T08:52:04.430Z,39.8
2018-09-14T08:57:11.202Z,40.2
2018-09-14T09:02:17.949Z,40.6
2018-09-14T09:07:24.647Z,41.1
2018-09-14T09:12:31.326Z,41.6
2018-09-14T09:17:38.203Z,42
2018-09-14T09:22:44.752Z,42.4
2018-09-14T09:32:58.058Z,43.2
2018-09-14T09:38:04.425Z,43.5
2018-09-14T09:43:11.032Z,43.8
2018-09-14T09:53:24.205Z,44.4
2018-09-14T09:58:30.556Z,44.6
2018-09-14T10:13:50.049Z,45.2
2018-09-14T10:18:56.361Z,45.3
2018-09-14T10:24:02.787Z,45.4
2018-09-14T10:39:22.197Z,44.8
2018-09-14T10:44:28.622Z,44.5
2018-09-14T10:49:35.036Z,44.8
2018-09-14T10:54:41.524Z,44.7
2018-09-14T10:59:48.062Z,44.9
2018-09-14T11:10:00.907Z,45.4
2018-09-14T11:15:07.381Z,45.6
2018-09-14T11:20:13.914Z,45.6
2018-09-14T11:25:20.201Z,45.5
2018-09-14T11:30:26.603Z,45.6
2018-09-14T11:40:39.711Z,45.4
2018-09-14T11:55:58.754Z,45.4
2018-09-14T12:01:05.222Z,45.4
2018-09-14T12:06:11.665Z,44.9
2018-09-14T12:11:18.169Z,44.5
2018-09-14T12:16:24.575Z,44.3
2018-09-14T12:21:31.082Z,43.7
2018-09-14T12:26:37.786Z,43.2
2018-09-14T12:31:44.272Z,42.9
2018-09-14T12:36:50.707Z,42.7
2018-09-14T12:41:57.304Z,42.4
2018-09-14T13:02:23.931Z,41.4
2018-09-14T13:07:30.510Z,40.8
2018-09-14T13:22:50.885Z,39.1
2018-09-14T13:33:04.498Z,37.9
2018-09-14T13:38:11.388Z,37.1
2018-09-14T13:43:18.316Z,36.6
2018-09-14T13:48:25.324Z,36.1
2018-09-14T13:53:32.330Z,35.9
2018-09-14T13:58:39.421Z,35.4
2018-09-14T14:03:46.427Z,35
2018-09-14T14:08:53.738Z,34.7
2018-09-14T14:14:04.374Z,34.5
2018-09-14T14:19:07.765Z,34.1
2018-09-14T14:24:14.924Z,33.9
2018-09-14T14:29:22.333Z,33.7
2018-09-14T14:44:43.744Z,32.9
2018-09-14T14:49:51.064Z,32.6
2018-09-14T14:54:58.190Z,32.3
2018-09-14T15:00:05.477Z,32.2
2018-09-14T15:05:13.752Z,32
2018-09-14T15:20:34.729Z,31.6
2018-09-14T15:25:42.047Z,31.4
2018-09-14T15:30:49.292Z,31.3
2018-09-14T15:35:57.019Z,31.3
2018-09-14T15:41:03.940Z,31.3
2018-09-14T15:46:11.329Z,31.2
2018-09-14T15:51:18.641Z,31.1
2018-09-14T15:56:25.909Z,31
2018-09-14T16:01:33.278Z,30.9
2018-09-14T16:06:40.610Z,31
2018-09-14T16:11:47.948Z,30.9
2018-09-14T16:16:55.288Z,30.8
2018-09-14T16:27:10.004Z,30.9
2018-09-14T16:32:17.341Z,30.8
2018-09-14T16:37:24.718Z,30.9
2018-09-14T16:42:32.061Z,30.8
2018-09-14T16:47:39.484Z,30.8
2018-09-14T16:57:54.198Z,30.9
2018-09-14T17:08:08.998Z,30.6
2018-09-14T17:13:16.495Z,30.2
2018-09-14T17:18:23.772Z,30.1
2018-09-14T17:23:31.177Z,29.7
2018-09-14T17:28:38.661Z,29.5
2018-09-14T17:33:46.065Z,29.2
2018-09-14T17:38:53.534Z,28.9
2018-09-14T17:44:01.006Z,28.7
2018-09-14T17:49:08.488Z,28.4
2018-09-14T17:54:16.131Z,28.1
2018-09-14T17:59:23.545Z,27.8
2018-09-14T18:04:31.099Z,27.5
2018-09-14T18:09:38.789Z,27.3
2018-09-14T18:14:46.243Z,27.2
2018-09-14T18:19:53.788Z,27
2018-09-14T18:25:01.383Z,26.7
2018-09-14T18:30:09.245Z,26.6
2018-09-14T18:40:24.271Z,26.3
2018-09-14T18:45:31.903Z,26.2
2018-09-14T18:50:39.565Z,25.9
2018-09-14T18:55:47.218Z,25.7
2018-09-14T19:00:54.908Z,25.5
2018-09-14T19:06:02.684Z,25.4
2018-09-14T19:11:10.309Z,25.1
2018-09-14T19:16:18.036Z,24.9
2018-09-14T19:21:26.370Z,24.8
2018-09-14T19:26:33.536Z,24.6
2018-09-14T19:31:41.363Z,24.4
2018-09-14T19:36:49.020Z,24.3
2018-09-14T19:41:56.758Z,24
2018-09-14T19:47:04.559Z,23.9
2018-09-14T19:52:12.380Z,23.6
2018-09-14T19:57:20.259Z,23.5
2018-09-14T20:02:28.211Z,23.4
2018-09-14T20:07:35.898Z,23.3
2018-09-14T20:12:43.777Z,23.1
2018-09-14T20:22:59.551Z,23
2018-09-14T20:28:07.358Z,22.8
2018-09-14T20:33:15.237Z,22.6
2018-09-14T20:38:23.106Z,22.5
2018-09-14T20:43:30.973Z,22.3
2018-09-14T20:48:41.894Z,22.3
2018-09-14T20:53:46.838Z,22.2
2018-09-14T20:58:54.700Z,22.2
2018-09-14T21:04:02.812Z,22.1
2018-09-14T21:14:18.583Z,21.9
2018-09-14T21:19:26.526Z,21.8
2018-09-14T21:24:34.650Z,21.8
2018-09-14T21:29:43.344Z,21.8
2018-09-14T21:34:50.428Z,21.7
2018-09-14T21:39:58.414Z,21.6
2018-09-14T21:45:06.515Z,21.6
2018-09-14T21:50:14.387Z,21.6
2018-09-14T21:55:22.354Z,21.5
2018-09-14T22:05:38.339Z,21.5
2018-09-14T22:10:46.328Z,21.5
2018-09-14T22:15:54.316Z,21.4
2018-09-14T22:26:10.266Z,21.3
2018-09-14T22:31:18.281Z,21.3
2018-09-14T22:36:26.270Z,21.2
2018-09-14T22:41:34.220Z,21.3
2018-09-14T22:46:42.253Z,21.3
2018-09-14T22:51:50.216Z,21.2
2018-09-14T22:56:58.225Z,21.2
2018-09-14T23:02:06.223Z,21.1
2018-09-14T23:07:14.212Z,21.1
2018-09-14T23:17:30.194Z,21
2018-09-14T23:22:38.178Z,20.9
2018-09-14T23:27:46.324Z,20.8
2018-09-14T23:32:54.181Z,20.7
2018-09-14T23:38:02.234Z,20.6
2018-09-14T23:48:18.381Z,20.5
2018-09-14T23:53:26.269Z,20.5
2018-09-14T23:58:34.327Z,20.3
